Terminal Aerodrome Forecast
Issued by NWS Twin Cities, MN

Home | Current Version | Previous Version | Graphics & Text | Print | Product List | Glossary On
Versions: 1 2 3 4 5 6 7 8 9 10 11 12 13 14 15 16 17 18 19 20 21 22 23 24 25 26 27 28 29
000
FTUS43 KMPX 031731
TAFMSP
TAF
KMSP 031731Z 0318/0424 30014G22KT 2SM -SN BLSN BKN015 BKN050
      TEMPO 0318/0320 5SM BLSN BKN025
     FM032000 31022G30KT 6SM BLSN SCT025 BKN090
     FM040100 29017G24KT P6SM SKC
     FM040800 29012KT P6SM SKC
     FM042000 29012G20KT P6SM BKN025=

USA.gov is the U.S. government's official web portal to all federal, state and local government web resources and services.